createdAt,value
2022-12-08T00:01:19.588Z,20.80
2022-12-08T00:03:47.056Z,19.63
2022-12-08T00:06:43.037Z,20.77
2022-12-08T00:09:39.018Z,20.45
2022-12-08T00:12:15.204Z,20.50
2022-12-08T00:14:44.622Z,20.52
2022-12-08T00:17:13.243Z,21.17
2022-12-08T00:19:40.634Z,20.85
2022-12-08T00:22:11.648Z,20.15
2022-12-08T00:24:40.083Z,20.02
2022-12-08T00:27:10.924Z,19.50
2022-12-08T00:29:38.064Z,19.45
2022-12-08T00:32:05.726Z,19.52
2022-12-08T00:34:33.286Z,18.58
2022-12-08T00:37:02.383Z,17.20
2022-12-08T00:39:28.985Z,15.63
2022-12-08T00:42:13.818Z,14.00
2022-12-08T00:44:45.056Z,14.00
2022-12-08T00:47:13.088Z,13.40
2022-12-08T00:49:40.036Z,12.63
2022-12-08T00:52:09.307Z,13.10
2022-12-08T00:54:38.438Z,12.13
2022-12-08T00:57:04.975Z,12.85
2022-12-08T00:59:31.692Z,12.93
2022-12-08T01:01:58.312Z,12.40
2022-12-08T01:04:25.004Z,13.00
2022-12-08T01:06:51.708Z,12.73
2022-12-08T01:09:18.671Z,13.48
2022-12-08T01:11:45.929Z,13.30
2022-12-08T01:14:13.629Z,13.35
2022-12-08T01:16:41.590Z,13.60
2022-12-08T01:19:15.579Z,12.95
2022-12-08T01:21:43.463Z,13.63
2022-12-08T01:24:15.991Z,12.20
2022-12-08T01:26:42.743Z,12.80
2022-12-08T01:29:10.186Z,12.65
2022-12-08T01:31:37.270Z,13.60
2022-12-08T01:34:04.980Z,13.88
2022-12-08T01:36:33.095Z,13.20
2022-12-08T01:39:01.349Z,13.38
2022-12-08T01:41:31.257Z,12.60
2022-12-08T01:44:08.475Z,13.82
2022-12-08T01:46:40.252Z,13.35
2022-12-08T01:49:12.791Z,12.57
2022-12-08T01:51:43.299Z,13.40
2022-12-08T01:54:12.566Z,13.98
2022-12-08T01:56:59.068Z,13.23
2022-12-08T01:59:27.166Z,15.35
2022-12-08T02:01:53.989Z,14.88
2022-12-08T02:04:20.637Z,14.80
2022-12-08T02:06:53.195Z,17.27
2022-12-08T02:09:22.707Z,15.20
2022-12-08T02:11:58.581Z,14.02
2022-12-08T02:14:25.619Z,13.48
2022-12-08T02:17:04.368Z,13.93
2022-12-08T02:20:13.933Z,16.00
2022-12-08T02:22:45.575Z,15.52
2022-12-08T02:25:33.163Z,16.20
2022-12-08T02:28:17.959Z,14.63
2022-12-08T02:30:59.874Z,13.35
2022-12-08T02:34:37.811Z,14.75
2022-12-08T02:37:21.133Z,11.50
2022-12-08T02:40:09.333Z,12.55
2022-12-08T02:42:42.185Z,11.88
2022-12-08T02:45:28.325Z,12.32
2022-12-08T02:47:55.331Z,11.25
2022-12-08T02:50:21.909Z,12.55
2022-12-08T02:52:48.746Z,12.18
2022-12-08T02:55:15.236Z,12.43
2022-12-08T02:57:52.801Z,11.93
2022-12-08T03:00:22.624Z,11.18
2022-12-08T03:03:19.338Z,11.57
2022-12-08T03:05:45.821Z,12.25
2022-12-08T03:08:17.224Z,12.02
2022-12-08T03:10:52.367Z,11.48
2022-12-08T03:13:29.735Z,12.02
2022-12-08T03:15:56.994Z,11.25
2022-12-08T03:18:31.857Z,10.20
2022-12-08T03:20:59.519Z,10.45
2022-12-08T03:23:26.668Z,10.43
2022-12-08T03:26:17.571Z,10.77
2022-12-08T03:28:44.701Z,11.15
2022-12-08T03:31:14.558Z,10.70
2022-12-08T03:33:45.537Z,11.23
2022-12-08T03:36:13.677Z,10.15
2022-12-08T03:38:46.150Z,9.98
2022-12-08T03:41:19.074Z,10.00
2022-12-08T03:43:46.562Z,9.55
2022-12-08T03:46:13.867Z,10.02
2022-12-08T03:48:40.824Z,11.95
2022-12-08T03:51:09.594Z,13.65
2022-12-08T03:53:36.315Z,16.83
2022-12-08T03:56:15.664Z,13.57
2022-12-08T03:58:45.200Z,11.27
2022-12-08T04:01:12.443Z,11.27
2022-12-08T04:03:39.017Z,10.93
2022-12-08T04:06:06.441Z,10.48
2022-12-08T04:08:33.147Z,9.85
2022-12-08T04:10:59.852Z,9.70
2022-12-08T04:13:28.838Z,9.95
2022-12-08T04:15:55.444Z,10.13
2022-12-08T04:18:23.023Z,10.43
2022-12-08T04:20:51.856Z,10.52
2022-12-08T04:23:21.050Z,10.02
2022-12-08T04:25:47.583Z,11.20
2022-12-08T04:28:15.201Z,10.75
2022-12-08T04:30:44.278Z,10.85
2022-12-08T04:33:10.953Z,10.18
2022-12-08T04:35:39.820Z,10.88
2022-12-08T04:38:08.686Z,10.30
2022-12-08T04:40:37.496Z,10.75
2022-12-08T04:43:06.283Z,10.25
2022-12-08T04:45:33.441Z,9.75
2022-12-08T04:48:01.029Z,9.90
2022-12-08T04:50:28.523Z,10.70
2022-12-08T04:52:55.075Z,9.90
2022-12-08T04:55:21.676Z,10.25
2022-12-08T04:57:50.941Z,10.05
2022-12-08T05:00:19.955Z,10.60
2022-12-08T05:02:46.568Z,9.85
2022-12-08T05:05:13.177Z,9.85
2022-12-08T05:07:39.919Z,10.20
2022-12-08T05:10:07.565Z,9.65
2022-12-08T05:12:36.384Z,9.93
2022-12-08T05:15:04.020Z,9.40
2022-12-08T05:17:30.540Z,9.23
2022-12-08T05:19:57.092Z,9.65
2022-12-08T05:22:25.839Z,9.07
2022-12-08T05:24:54.871Z,9.73
2022-12-08T05:27:21.410Z,9.93
2022-12-08T05:29:48.362Z,10.13
2022-12-08T05:32:14.877Z,10.88
2022-12-08T05:34:41.593Z,10.75
2022-12-08T05:37:08.159Z,11.10
2022-12-08T05:39:37.070Z,11.20
2022-12-08T05:42:03.849Z,11.68
2022-12-08T05:44:33.168Z,10.82
2022-12-08T05:46:59.794Z,12.60
2022-12-08T05:49:28.794Z,11.45
2022-12-08T05:51:55.321Z,11.10
2022-12-08T05:54:21.954Z,11.20
2022-12-08T05:56:50.705Z,11.20
2022-12-08T05:59:17.309Z,11.30
2022-12-08T06:01:44.749Z,10.95
2022-12-08T06:04:11.398Z,10.77
2022-12-08T06:06:38.578Z,10.88
2022-12-08T06:09:06.623Z,10.85
2022-12-08T06:11:35.466Z,9.93
2022-12-08T06:14:06.721Z,9.93
2022-12-08T06:16:33.312Z,10.13
2022-12-08T06:18:59.854Z,10.82
2022-12-08T06:21:26.441Z,10.95
2022-12-08T06:23:54.579Z,10.27
2022-12-08T06:26:26.507Z,10.40
2022-12-08T06:28:53.324Z,10.60
2022-12-08T06:31:25.775Z,9.80
2022-12-08T06:33:53.322Z,10.55
2022-12-08T06:36:22.147Z,10.05
2022-12-08T06:38:51.908Z,10.75
2022-12-08T06:41:18.785Z,10.10
2022-12-08T06:43:45.444Z,10.05
2022-12-08T06:46:17.262Z,9.57
2022-12-08T06:48:44.404Z,9.25
2022-12-08T06:51:14.566Z,10.40
2022-12-08T06:53:41.902Z,10.48
2022-12-08T06:56:09.397Z,10.77
2022-12-08T06:58:38.825Z,10.50
2022-12-08T07:01:11.098Z,12.75
2022-12-08T07:03:38.589Z,15.95
2022-12-08T07:06:07.937Z,12.13
2022-12-08T07:08:34.892Z,11.70
2022-12-08T07:11:07.984Z,14.55
2022-12-08T07:13:37.420Z,12.52
2022-12-08T07:16:09.065Z,12.15
2022-12-08T07:18:36.707Z,12.68
2022-12-08T07:21:09.193Z,21.63
2022-12-08T07:23:36.247Z,13.70
2022-12-08T07:26:07.837Z,17.50
2022-12-08T07:28:36.572Z,11.95
2022-12-08T07:31:06.180Z,11.55
2022-12-08T07:33:36.220Z,11.35
2022-12-08T07:36:06.775Z,14.93
2022-12-08T07:38:33.583Z,11.60
2022-12-08T07:41:00.512Z,12.20
2022-12-08T07:43:27.098Z,11.93
2022-12-08T07:45:53.887Z,11.65
2022-12-08T07:48:20.487Z,11.93
2022-12-08T07:50:47.539Z,12.50
2022-12-08T07:53:14.494Z,17.23
2022-12-08T07:55:43.945Z,16.38
2022-12-08T07:58:13.577Z,15.25
2022-12-08T08:00:40.186Z,17.85
2022-12-08T08:03:08.884Z,16.73
2022-12-08T08:05:35.535Z,15.77
2022-12-08T08:08:02.229Z,16.88
2022-12-08T08:10:28.918Z,13.85
2022-12-08T08:12:59.392Z,12.35
2022-12-08T08:15:28.769Z,10.82
2022-12-08T08:17:55.443Z,11.60
2022-12-08T08:20:24.383Z,12.73
2022-12-08T08:22:51.474Z,12.80
2022-12-08T08:25:19.710Z,11.73
2022-12-08T08:27:46.867Z,13.15
2022-12-08T08:30:19.990Z,11.40
2022-12-08T08:32:48.885Z,10.75
2022-12-08T08:35:15.853Z,10.95
2022-12-08T08:37:48.871Z,12.27
2022-12-08T08:42:42.845Z,11.43
2022-12-08T08:45:09.824Z,12.20
2022-12-08T08:47:36.433Z,11.52
2022-12-08T08:50:04.656Z,11.10
2022-12-08T08:52:31.443Z,11.73
2022-12-08T08:54:57.976Z,10.32
2022-12-08T08:57:26.100Z,10.60
2022-12-08T08:59:53.620Z,11.30
2022-12-08T09:02:21.160Z,9.00
2022-12-08T09:04:48.015Z,8.82
2022-12-08T09:07:16.038Z,8.70
2022-12-08T09:09:42.889Z,9.63
2022-12-08T09:12:14.862Z,8.30
2022-12-08T09:14:41.494Z,9.27
2022-12-08T09:17:10.270Z,8.05
2022-12-08T09:19:39.038Z,8.15
2022-12-08T09:22:05.978Z,8.30
2022-12-08T09:24:35.007Z,7.50
2022-12-08T09:27:01.665Z,9.00
2022-12-08T09:29:34.055Z,7.97
2022-12-08T09:32:02.477Z,8.27
2022-12-08T09:34:29.101Z,7.47
2022-12-08T09:36:55.705Z,5.10
2022-12-08T09:39:22.724Z,5.95
2022-12-08T09:41:59.398Z,5.63
2022-12-08T09:44:57.453Z,6.03
2022-12-08T09:47:39.866Z,6.38
2022-12-08T09:50:30.234Z,6.25
2022-12-08T09:53:09.853Z,5.38
2022-12-08T09:55:36.425Z,6.03
2022-12-08T09:58:11.594Z,5.88
2022-12-08T10:00:40.574Z,6.10
2022-12-08T10:03:16.653Z,6.18
2022-12-08T10:05:54.684Z,6.03
2022-12-08T10:08:28.633Z,6.40
2022-12-08T10:10:59.302Z,6.28
2022-12-08T10:13:52.303Z,6.00
2022-12-08T10:16:41.257Z,5.97
2022-12-08T10:19:29.079Z,6.35
2022-12-08T10:21:57.170Z,6.03
2022-12-08T10:24:23.735Z,5.93
2022-12-08T10:26:50.388Z,6.25
2022-12-08T10:29:19.494Z,5.90
2022-12-08T10:31:46.173Z,6.43
2022-12-08T10:34:23.179Z,6.22
2022-12-08T10:36:54.329Z,6.70
2022-12-08T10:39:45.719Z,6.75
2022-12-08T10:42:15.528Z,8.82
2022-12-08T10:45:00.702Z,6.50
2022-12-08T10:47:29.667Z,6.63
2022-12-08T10:50:23.675Z,7.93
2022-12-08T10:53:12.396Z,6.30
2022-12-08T10:55:47.020Z,7.10
2022-12-08T10:58:36.596Z,6.70
2022-12-08T11:01:20.112Z,7.32
2022-12-08T11:03:55.111Z,7.55
2022-12-08T11:06:30.628Z,7.00
2022-12-08T11:09:04.520Z,6.82
2022-12-08T11:11:49.983Z,7.75
2022-12-08T11:14:18.921Z,6.55
2022-12-08T11:16:46.124Z,7.15
2022-12-08T11:19:18.343Z,7.60
2022-12-08T11:21:45.087Z,6.88
2022-12-08T11:24:14.612Z,6.70
2022-12-08T11:26:47.036Z,7.47
2022-12-08T11:29:13.685Z,6.97
2022-12-08T11:31:44.389Z,7.38
2022-12-08T11:34:19.780Z,7.38
2022-12-08T11:36:47.292Z,7.03
2022-12-08T11:39:15.390Z,8.20
2022-12-08T11:41:45.865Z,8.13
2022-12-08T11:44:33.827Z,7.40
2022-12-08T11:47:08.803Z,7.70
2022-12-08T11:49:43.143Z,11.15
2022-12-08T11:52:45.379Z,8.00
2022-12-08T11:55:50.740Z,9.57
2022-12-08T11:58:38.338Z,7.43
2022-12-08T12:01:18.461Z,7.28
2022-12-08T12:03:52.885Z,7.47
2022-12-08T12:06:54.854Z,7.20
2022-12-08T12:09:22.026Z,7.50
2022-12-08T12:12:15.842Z,7.40
2022-12-08T12:15:10.355Z,7.05
2022-12-08T12:17:39.188Z,7.85
2022-12-08T12:20:16.578Z,7.68
2022-12-08T12:22:47.012Z,13.15
2022-12-08T12:25:20.412Z,7.22
2022-12-08T12:27:49.416Z,7.90
2022-12-08T12:30:27.987Z,8.10
2022-12-08T12:32:56.765Z,7.40
2022-12-08T12:35:43.807Z,6.80
2022-12-08T12:38:57.195Z,7.10
2022-12-08T12:41:27.488Z,6.10
2022-12-08T12:44:14.489Z,7.32
2022-12-08T12:46:48.454Z,7.20
2022-12-08T12:49:39.933Z,6.68
2022-12-08T12:52:15.329Z,5.40
2022-12-08T12:55:07.933Z,6.65
2022-12-08T12:57:39.814Z,6.03
2022-12-08T13:00:17.833Z,6.35
2022-12-08T13:02:44.505Z,6.55
2022-12-08T13:05:23.486Z,6.50
2022-12-08T13:07:55.644Z,6.70
2022-12-08T13:10:33.014Z,6.45
2022-12-08T13:13:16.339Z,7.50
2022-12-08T13:15:50.967Z,8.52
2022-12-08T13:18:34.365Z,6.95
2022-12-08T13:21:21.811Z,7.68
2022-12-08T13:24:10.363Z,6.82
2022-12-08T13:26:51.140Z,7.57
2022-12-08T13:29:17.716Z,9.05
2022-12-08T13:31:50.559Z,7.50
2022-12-08T13:34:33.272Z,7.55
2022-12-08T13:37:11.475Z,8.00
2022-12-08T13:39:41.142Z,8.55
2022-12-08T13:42:18.375Z,8.48
2022-12-08T13:45:19.051Z,8.15
2022-12-08T13:48:26.620Z,8.23
2022-12-08T13:57:08.625Z,9.80
2022-12-08T13:59:43.837Z,9.48
2022-12-08T14:02:34.353Z,9.85
2022-12-08T14:07:34.695Z,10.82
2022-12-08T14:10:03.769Z,12.13
2022-12-08T14:12:31.540Z,13.73
2022-12-08T14:15:03.695Z,11.20
2022-12-08T14:17:30.799Z,10.15
2022-12-08T14:20:00.043Z,9.60
2022-12-08T14:22:34.036Z,9.93
2022-12-08T14:25:00.732Z,10.98
2022-12-08T14:27:32.045Z,9.98
2022-12-08T14:30:03.822Z,10.55
2022-12-08T14:32:30.428Z,10.75
2022-12-08T14:35:11.857Z,10.60
2022-12-08T14:37:44.627Z,10.50
2022-12-08T14:40:24.001Z,10.20
2022-12-08T14:43:18.290Z,9.52
2022-12-08T14:45:44.864Z,9.68
2022-12-08T14:48:38.572Z,8.90
2022-12-08T14:51:14.245Z,10.13
2022-12-08T14:54:02.671Z,9.43
2022-12-08T14:56:53.647Z,8.45
2022-12-08T14:59:34.105Z,8.93
2022-12-08T15:02:09.832Z,9.75
2022-12-08T15:04:45.506Z,9.23
2022-12-08T15:07:22.535Z,9.52
2022-12-08T15:10:07.460Z,9.48
2022-12-08T15:12:34.215Z,9.18
2022-12-08T15:15:09.627Z,10.00
2022-12-08T15:18:04.189Z,9.85
2022-12-08T15:20:35.665Z,9.43
2022-12-08T15:23:02.706Z,10.07
2022-12-08T15:25:29.269Z,9.13
2022-12-08T15:28:01.356Z,8.80
2022-12-08T15:30:28.568Z,10.23
2022-12-08T15:32:56.111Z,10.23
2022-12-08T15:35:22.760Z,11.57
2022-12-08T15:37:51.924Z,16.08
2022-12-08T15:40:25.970Z,30.60
2022-12-08T15:42:52.790Z,27.25
2022-12-08T15:45:26.337Z,21.45
2022-12-08T15:47:52.808Z,24.48
2022-12-08T15:50:21.913Z,22.92
2022-12-08T15:52:51.648Z,19.85
2022-12-08T15:55:20.906Z,20.95
2022-12-08T15:58:51.363Z,17.08
2022-12-08T16:00:55.489Z,17.67
2022-12-08T16:04:13.733Z,22.13
2022-12-08T16:09:33.211Z,31.42
2022-12-08T16:12:18.769Z,29.55
2022-12-08T16:17:32.689Z,27.63
2022-12-08T16:20:00.300Z,21.92
2022-12-08T16:22:54.152Z,27.48
2022-12-08T16:25:19.919Z,19.90
2022-12-08T16:28:01.273Z,18.20
2022-12-08T16:30:32.198Z,18.88
2022-12-08T16:32:58.684Z,19.33
2022-12-08T16:35:25.119Z,19.08
2022-12-08T16:37:51.561Z,18.88
2022-12-08T16:40:18.153Z,15.27
2022-12-08T16:42:45.833Z,12.93
2022-12-08T16:45:12.959Z,11.05
2022-12-08T16:47:44.489Z,9.90
2022-12-08T16:50:20.232Z,12.10
2022-12-08T16:52:48.246Z,13.95
2022-12-08T16:55:19.485Z,14.93
2022-12-08T16:57:47.255Z,16.75
2022-12-08T17:00:19.841Z,16.45
2022-12-08T17:02:46.635Z,17.48
2022-12-08T17:05:15.136Z,16.05
2022-12-08T17:07:45.761Z,14.63
2022-12-08T17:10:17.682Z,14.45
2022-12-08T17:12:44.239Z,14.98
2022-12-08T17:15:14.981Z,15.02
2022-12-08T17:17:41.700Z,14.77
2022-12-08T17:20:12.324Z,17.63
2022-12-08T17:22:39.464Z,18.77
2022-12-08T17:25:06.495Z,21.45
2022-12-08T17:27:33.267Z,19.50
2022-12-08T17:29:59.696Z,16.25
2022-12-08T17:32:26.957Z,16.67
2022-12-08T17:34:53.619Z,13.98
2022-12-08T17:37:22.510Z,13.68
2022-12-08T17:39:48.971Z,12.48
2022-12-08T17:42:15.555Z,12.18
2022-12-08T17:44:42.081Z,11.35
2022-12-08T17:47:08.671Z,10.13
2022-12-08T17:49:35.131Z,10.63
2022-12-08T17:52:05.432Z,10.35
2022-12-08T17:54:34.328Z,13.05
2022-12-08T17:57:00.855Z,40.80
2022-12-08T17:59:28.148Z,39.40
2022-12-08T18:01:58.983Z,38.92
2022-12-08T18:04:26.739Z,25.73
2022-12-08T18:06:58.501Z,37.42
2022-12-08T18:09:25.012Z,38.50
2022-12-08T18:11:51.668Z,34.75
2022-12-08T18:14:18.079Z,22.77
2022-12-08T18:16:46.024Z,20.17
2022-12-08T18:19:13.710Z,21.40
2022-12-08T18:21:40.925Z,26.80
2022-12-08T18:24:09.031Z,20.80
2022-12-08T18:26:38.531Z,19.30
2022-12-08T18:29:04.972Z,16.88
2022-12-08T18:31:31.522Z,16.58
2022-12-08T18:33:58.063Z,20.35
2022-12-08T18:36:30.088Z,23.27
2022-12-08T18:38:56.625Z,25.00
2022-12-08T18:41:25.801Z,24.15
2022-12-08T18:43:55.199Z,23.13
2022-12-08T18:46:21.875Z,23.17
2022-12-08T18:48:50.049Z,19.88
2022-12-08T18:51:19.650Z,19.67
2022-12-08T18:53:46.764Z,20.90
2022-12-08T18:56:30.209Z,22.30
2022-12-08T18:59:02.843Z,20.95
2022-12-08T19:01:30.213Z,23.55
2022-12-08T19:04:26.707Z,24.58
2022-12-08T19:06:45.489Z,22.17
2022-12-08T19:09:15.771Z,23.25
2022-12-08T19:11:42.842Z,23.75
2022-12-08T19:14:09.891Z,23.73
2022-12-08T19:16:37.387Z,25.33
2022-12-08T19:19:04.562Z,24.02
2022-12-08T19:21:32.020Z,19.15
2022-12-08T19:24:01.520Z,22.90
2022-12-08T19:26:28.703Z,23.65
2022-12-08T19:28:55.921Z,23.63
2022-12-08T19:31:22.571Z,24.25
2022-12-08T19:33:49.109Z,23.52
2022-12-08T19:36:21.557Z,22.77
2022-12-08T19:39:06.718Z,20.85
2022-12-08T19:41:52.666Z,21.00
2022-12-08T19:44:45.258Z,21.60
2022-12-08T19:47:11.954Z,30.95
2022-12-08T19:49:38.819Z,29.67
2022-12-08T19:52:06.003Z,24.70
2022-12-08T19:54:33.039Z,27.88
2022-12-08T19:56:59.542Z,27.80
2022-12-08T19:59:26.464Z,27.88
2022-12-08T20:01:59.289Z,25.25
2022-12-08T20:04:29.109Z,25.33
2022-12-08T20:06:56.590Z,25.85
2022-12-08T20:09:25.638Z,24.38
2022-12-08T20:11:54.659Z,21.38
2022-12-08T20:14:22.674Z,20.73
2022-12-08T20:16:52.580Z,22.42
2022-12-08T20:19:19.158Z,22.48
2022-12-08T20:24:09.781Z,25.42
2022-12-08T20:26:36.324Z,25.23
2022-12-08T20:29:05.352Z,21.90
2022-12-08T20:31:33.203Z,23.63
2022-12-08T20:34:03.331Z,26.30
2022-12-08T20:36:29.892Z,26.42
2022-12-08T20:38:59.858Z,24.55
2022-12-08T20:41:29.497Z,26.52
2022-12-08T20:43:56.467Z,25.33
2022-12-08T20:46:23.018Z,24.48
2022-12-08T20:48:49.729Z,24.73
2022-12-08T20:51:18.854Z,24.73
2022-12-08T20:53:45.866Z,24.73
2022-12-08T20:56:18.265Z,25.05
2022-12-08T20:58:45.142Z,26.95
2022-12-08T21:01:13.703Z,31.55
2022-12-08T21:03:41.125Z,25.38
2022-12-08T21:06:10.966Z,27.90
2022-12-08T21:08:38.926Z,27.77
2022-12-08T21:11:06.512Z,29.13
2022-12-08T21:13:33.900Z,28.58
2022-12-08T21:16:00.878Z,27.42
2022-12-08T21:18:27.656Z,25.90
2022-12-08T21:21:02.369Z,24.45
2022-12-08T21:23:29.237Z,24.40
2022-12-08T21:25:55.895Z,27.25
2022-12-08T21:28:22.787Z,28.25
2022-12-08T21:30:49.347Z,25.90
2022-12-08T21:33:16.184Z,25.00
2022-12-08T21:35:42.804Z,23.58
2022-12-08T21:38:09.618Z,27.55
2022-12-08T21:40:36.637Z,33.53
2022-12-08T21:43:06.012Z,31.25
2022-12-08T21:45:33.920Z,29.55
2022-12-08T21:48:10.767Z,29.13
2022-12-08T21:50:38.308Z,28.52
2022-12-08T21:53:05.518Z,28.63
2022-12-08T21:55:32.252Z,26.70
2022-12-08T21:58:00.953Z,25.42
2022-12-08T22:00:28.081Z,23.73
2022-12-08T22:02:55.092Z,20.10
2022-12-08T22:05:21.979Z,19.90
2022-12-08T22:07:48.625Z,19.92
2022-12-08T22:10:15.717Z,21.02
2022-12-08T22:12:42.515Z,21.52
2022-12-08T22:15:10.958Z,21.52
2022-12-08T22:17:42.400Z,19.98
2022-12-08T22:20:12.816Z,19.02
2022-12-08T22:22:39.953Z,21.10
2022-12-08T22:25:10.957Z,21.45
2022-12-08T22:27:38.171Z,23.58
2022-12-08T22:30:05.804Z,24.55
2022-12-08T22:32:32.754Z,23.35
2022-12-08T22:34:59.455Z,26.45
2022-12-08T22:37:26.016Z,25.10
2022-12-08T22:39:52.741Z,26.65
2022-12-08T22:42:19.431Z,26.48
2022-12-08T22:44:48.254Z,26.02
2022-12-08T22:47:14.686Z,24.77
2022-12-08T22:49:41.185Z,24.15
2022-12-08T22:52:08.352Z,23.60
2022-12-08T22:54:35.380Z,32.33
2022-12-08T22:57:02.174Z,30.15
2022-12-08T22:59:29.398Z,27.02
2022-12-08T23:01:55.915Z,25.30
2022-12-08T23:04:22.477Z,24.88
2022-12-08T23:06:49.031Z,23.33
2022-12-08T23:09:15.821Z,25.77
2022-12-08T23:11:43.135Z,25.10
2022-12-08T23:14:11.725Z,23.35
2022-12-08T23:16:38.518Z,23.60
2022-12-08T23:19:05.317Z,21.90
2022-12-08T23:21:34.280Z,22.52
2022-12-08T23:24:02.044Z,21.30
2022-12-08T23:26:31.632Z,19.85
2022-12-08T23:28:59.007Z,20.73
2022-12-08T23:31:26.313Z,19.73
2022-12-08T23:33:53.736Z,20.50
2022-12-08T23:36:22.049Z,20.48
2022-12-08T23:38:49.002Z,20.02
2022-12-08T23:41:16.683Z,20.50
2022-12-08T23:43:50.031Z,21.20
2022-12-08T23:46:19.625Z,20.70
2022-12-08T23:48:46.564Z,20.58
2022-12-08T23:51:13.562Z,18.80
2022-12-08T23:53:43.257Z,20.50
2022-12-08T23:56:14.428Z,18.88
2022-12-08T23:58:41.828Z,17.48
